Time;durP1;ratioP1;P1;durP2;ratioP2;P2;SDS_P1;SDS_P2;PMS_P1;PMS_P2;Temp;Humidity;BMP_temperature;BMP_pressure;BME280_temperature;BME280_humidity;BME280_pressure;Samples;Min_cycle;Max_cycle;Signal;HPM_P1;HPM_P2
2021/10/22 00:01:39;;;;;;;6.45;3.40;;;7.60;99.90;;;;;;5026748;28;20132;-66
2021/10/22 00:04:07;;;;;;;6.55;3.17;;;7.60;99.90;;;;;;5032419;28;20091;-66
2021/10/22 00:06:34;;;;;;;6.75;3.35;;;7.50;99.90;;;;;;5042977;28;20044;-66
2021/10/22 00:09:02;;;;;;;6.18;3.20;;;7.50;99.90;;;;;;5042345;28;20037;-66
2021/10/22 00:11:30;;;;;;;6.07;2.67;;;7.50;99.90;;;;;;5036833;28;20045;-66
2021/10/22 00:13:57;;;;;;;8.38;3.30;;;7.50;99.90;;;;;;5030791;28;20480;-66
2021/10/22 00:16:25;;;;;;;6.75;2.83;;;7.50;99.90;;;;;;5022786;28;20120;-66
2021/10/22 00:18:52;;;;;;;8.90;3.10;;;7.50;99.90;;;;;;5025147;28;20046;-66
2021/10/22 00:21:19;;;;;;;8.18;3.15;;;7.50;99.90;;;;;;5035083;28;20489;-66
2021/10/22 00:23:47;;;;;;;6.15;3.25;;;7.50;99.90;;;;;;5023280;28;20053;-66
2021/10/22 00:26:14;;;;;;;7.93;3.50;;;7.50;99.90;;;;;;5029673;28;20079;-66
2021/10/22 00:28:41;;;;;;;6.80;3.10;;;7.50;99.90;;;;;;5035787;28;20049;-66
2021/10/22 00:31:09;;;;;;;7.60;3.55;;;7.50;99.90;;;;;;5029586;28;20037;-66
2021/10/22 00:33:38;;;;;;;7.35;3.60;;;7.50;99.90;;;;;;5019739;28;20500;-66
2021/10/22 00:36:07;;;;;;;7.32;3.35;;;7.40;99.90;;;;;;5036389;28;20462;-66
2021/10/22 00:38:35;;;;;;;9.10;3.70;;;7.30;99.90;;;;;;5031395;28;20049;-66
2021/10/22 00:41:18;;;;;;;8.13;4.07;;;7.30;99.90;;;;;;5035526;28;20049;-66
2021/10/22 00:43:47;;;;;;;;;;;7.20;99.90;;;;;;5030251;28;20092;-66
2021/10/22 00:46:14;;;;;;;12.90;3.38;;;7.20;99.90;;;;;;5027221;28;19920;-66
2021/10/22 00:48:41;;;;;;;7.38;3.63;;;7.10;99.90;;;;;;5030325;28;20050;-66
2021/10/22 00:51:13;;;;;;;9.57;3.40;;;7.00;99.90;;;;;;5033179;28;20041;-66
2021/10/22 00:53:41;;;;;;;8.32;3.17;;;7.00;99.90;;;;;;5032364;28;20155;-66
2021/10/22 00:56:10;;;;;;;9.88;3.50;;;6.90;99.90;;;;;;5030398;28;20052;-66
2021/10/22 00:58:40;;;;;;;15.27;3.40;;;6.90;99.90;;;;;;5030518;28;20041;-67
2021/10/22 01:01:08;;;;;;;13.15;3.60;;;6.80;99.90;;;;;;5010067;28;20046;-67
2021/10/22 01:03:37;;;;;;;9.68;3.70;;;6.80;99.90;;;;;;5025970;28;20041;-66
2021/10/22 01:06:05;;;;;;;7.05;3.45;;;6.70;99.90;;;;;;5034463;28;20057;-66
2021/10/22 01:08:33;;;;;;;8.70;3.17;;;6.60;99.90;;;;;;5041571;28;20041;-66
2021/10/22 01:11:02;;;;;;;10.35;3.20;;;6.60;99.90;;;;;;5036361;28;20048;-66
2021/10/22 01:13:30;;;;;;;8.10;2.97;;;6.50;99.90;;;;;;5029927;28;20041;-66
2021/10/22 01:15:58;;;;;;;10.48;3.13;;;6.40;99.90;;;;;;5029536;28;20124;-66
2021/10/22 01:18:27;;;;;;;14.50;3.80;;;6.40;99.90;;;;;;5028044;28;20124;-66
2021/10/22 01:21:02;;;;;;;10.07;3.42;;;6.30;99.90;;;;;;5039565;28;20049;-66
2021/10/22 01:23:30;;;;;;;9.27;3.65;;;6.30;99.90;;;;;;5021933;28;20042;-66
2021/10/22 01:25:57;;;;;;;11.43;3.05;;;6.30;99.90;;;;;;5028551;28;20044;-66
2021/10/22 01:28:25;;;;;;;14.52;3.42;;;6.20;99.90;;;;;;5030864;28;20404;-66
2021/10/22 01:30:53;;;;;;;8.98;2.78;;;6.20;99.90;;;;;;5036495;28;20068;-66
2021/10/22 01:33:21;;;;;;;12.90;3.70;;;6.10;99.90;;;;;;5036709;28;20038;-66
2021/10/22 01:35:49;;;;;;;6.45;3.70;;;6.10;99.90;;;;;;5036588;28;20381;-66
2021/10/22 01:38:22;;;;;;;14.88;4.55;;;6.10;99.90;;;;;;5025364;28;20045;-66
2021/10/22 01:40:56;;;;;;;7.90;3.20;;;6.00;99.90;;;;;;5030221;28;20073;-66
2021/10/22 01:43:24;;;;;;;12.65;3.60;;;6.00;99.90;;;;;;5038142;28;20067;-66
2021/10/22 01:45:52;;;;;;;10.23;3.55;;;6.00;99.90;;;;;;5030469;28;20041;-66
2021/10/22 01:48:20;;;;;;;7.85;3.13;;;5.90;99.90;;;;;;5020189;28;20044;-66
2021/10/22 01:50:47;;;;;;;11.82;4.38;;;5.90;99.90;;;;;;5035298;28;20049;-66
2021/10/22 01:53:17;;;;;;;10.75;4.20;;;5.80;99.90;;;;;;5033996;28;20046;-66
2021/10/22 01:55:44;;;;;;;8.45;3.45;;;5.80;99.90;;;;;;5031481;28;20408;-66
2021/10/22 01:58:12;;;;;;;10.05;3.88;;;5.80;99.90;;;;;;5030601;28;20065;-66
2021/10/22 02:00:39;;;;;;;11.55;4.00;;;5.70;99.90;;;;;;5031385;28;20480;-66
2021/10/22 02:03:06;;;;;;;13.65;3.50;;;5.70;99.90;;;;;;5019253;28;20137;-66
2021/10/22 02:05:34;;;;;;;12.55;4.28;;;5.70;99.90;;;;;;5030121;28;20041;-66
2021/10/22 02:08:02;;;;;;;10.05;4.45;;;5.70;99.90;;;;;;5035262;28;20496;-66
2021/10/22 02:10:30;;;;;;;12.18;4.72;;;5.70;99.90;;;;;;5041362;28;20033;-66
2021/10/22 02:12:58;;;;;;;9.88;3.92;;;5.70;99.90;;;;;;5047924;28;20074;-66
2021/10/22 02:15:25;;;;;;;7.93;4.15;;;5.70;99.90;;;;;;5043551;28;20048;-66
2021/10/22 02:17:53;;;;;;;9.88;3.88;;;5.80;99.90;;;;;;5042501;28;20037;-66
2021/10/22 02:20:21;;;;;;;12.02;3.47;;;5.80;99.90;;;;;;5032107;28;20484;-66
2021/10/22 02:22:49;;;;;;;8.95;3.80;;;5.80;99.90;;;;;;5028161;28;20093;-66
2021/10/22 02:25:16;;;;;;;9.68;3.58;;;5.90;99.90;;;;;;5035555;28;20403;-66
2021/10/22 02:27:44;;;;;;;11.95;3.65;;;6.00;99.90;;;;;;5034334;28;20044;-66
2021/10/22 02:30:19;;;;;;;9.40;3.55;;;6.00;99.90;;;;;;5034617;28;20069;-66
2021/10/22 02:32:47;;;;;;;9.23;3.38;;;6.10;99.90;;;;;;5045039;28;20044;-65
2021/10/22 02:35:14;;;;;;;11.25;3.45;;;6.20;99.90;;;;;;5032769;28;20057;-66
2021/10/22 02:37:42;;;;;;;10.50;3.13;;;6.20;99.90;;;;;;5044831;28;20373;-66
2021/10/22 02:40:10;;;;;;;12.95;3.75;;;6.20;99.90;;;;;;5041497;28;20072;-65
2021/10/22 02:42:38;;;;;;;13.82;3.53;;;6.20;99.90;;;;;;5049354;28;20053;-66
2021/10/22 02:45:06;;;;;;;11.35;4.18;;;6.10;99.90;;;;;;5033580;28;20107;-66
2021/10/22 02:47:33;;;;;;;13.55;4.15;;;6.00;99.90;;;;;;5032511;28;20702;-66
2021/10/22 02:50:01;;;;;;;14.43;3.65;;;6.10;99.90;;;;;;5020412;28;20095;-66
2021/10/22 02:52:29;;;;;;;11.48;3.97;;;5.90;99.90;;;;;;5027950;28;20559;-66
2021/10/22 02:54:56;;;;;;;16.08;3.53;;;5.90;99.90;;;;;;5021720;28;20412;-65
2021/10/22 02:57:24;;;;;;;6.90;3.60;;;5.80;99.90;;;;;;5036812;28;20048;-67
2021/10/22 02:59:51;;;;;;;10.27;3.63;;;5.70;99.90;;;;;;5030640;28;20046;-65
2021/10/22 03:02:20;;;;;;;13.80;4.03;;;5.60;99.90;;;;;;5044671;28;20059;-65
2021/10/22 03:04:48;;;;;;;6.35;3.47;;;5.50;99.90;;;;;;5033148;28;20077;-65
2021/10/22 03:07:15;;;;;;;15.43;3.97;;;5.50;99.90;;;;;;5038249;28;20541;-67
2021/10/22 03:09:42;;;;;;;17.33;4.03;;;5.50;99.90;;;;;;5044635;28;20129;-66
2021/10/22 03:12:09;;;;;;;11.60;3.92;;;5.50;99.90;;;;;;5051394;28;20030;-66
2021/10/22 03:14:38;;;;;;;12.07;4.10;;;5.40;99.90;;;;;;5051151;28;20045;-66
2021/10/22 03:17:06;;;;;;;13.23;4.38;;;5.30;99.90;;;;;;5050622;28;20056;-66
2021/10/22 03:19:33;;;;;;;13.20;4.00;;;5.30;99.90;;;;;;5045174;28;20104;-67
2021/10/22 03:22:01;;;;;;;13.57;4.18;;;5.30;99.90;;;;;;5035542;28;20492;-66
2021/10/22 03:24:28;;;;;;;10.45;4.18;;;5.30;99.90;;;;;;5013926;28;20049;-66
2021/10/22 03:26:56;;;;;;;9.98;4.22;;;5.20;99.90;;;;;;5013437;28;20038;-66
2021/10/22 03:29:23;;;;;;;10.90;4.10;;;5.20;99.90;;;;;;5034496;28;20037;-65
2021/10/22 03:31:50;;;;;;;18.73;4.78;;;5.20;99.90;;;;;;5035822;28;20041;-67
2021/10/22 03:34:18;;;;;;;8.80;3.97;;;5.20;99.90;;;;;;5035466;28;20049;-66
2021/10/22 03:36:45;;;;;;;10.75;4.43;;;5.30;99.90;;;;;;5027535;28;20038;-66
2021/10/22 03:39:12;;;;;;;12.52;4.18;;;5.50;99.90;;;;;;5036322;28;20148;-66
2021/10/22 03:41:39;;;;;;;12.70;4.00;;;5.50;99.90;;;;;;5045355;28;20043;-66
2021/10/22 03:44:07;;;;;;;11.82;4.35;;;5.60;99.90;;;;;;5039955;28;20048;-66
2021/10/22 03:46:34;;;;;;;20.55;5.93;;;5.70;99.90;;;;;;5019979;28;20044;-66
2021/10/22 03:49:01;;;;;;;9.43;3.58;;;5.80;99.90;;;;;;5023160;28;20100;-66
2021/10/22 03:51:29;;;;;;;9.13;3.55;;;5.80;99.90;;;;;;5041274;28;20044;-66
2021/10/22 03:53:56;;;;;;;7.68;3.63;;;5.90;99.90;;;;;;5038692;28;20040;-66
2021/10/22 03:56:24;;;;;;;11.57;4.55;;;5.80;99.90;;;;;;5050654;28;20499;-66
2021/10/22 03:58:51;;;;;;;10.25;3.40;;;5.90;99.90;;;;;;5041869;28;20048;-66
2021/10/22 04:01:19;;;;;;;12.85;3.58;;;5.90;99.90;;;;;;5018393;28;20104;-66
2021/10/22 04:03:48;;;;;;;9.57;3.97;;;5.80;99.90;;;;;;5030752;28;20060;-67
2021/10/22 04:06:15;;;;;;;10.30;3.72;;;5.70;99.90;;;;;;5027617;28;20213;-67
2021/10/22 04:08:43;;;;;;;8.57;3.67;;;5.60;99.90;;;;;;5040699;28;20095;-67
2021/10/22 04:11:11;;;;;;;10.18;3.30;;;5.70;99.90;;;;;;5043737;28;20131;-67
2021/10/22 04:13:38;;;;;;;16.60;4.07;;;5.60;99.90;;;;;;5044029;28;20437;-67
2021/10/22 04:16:06;;;;;;;12.95;3.58;;;5.50;99.90;;;;;;5051331;28;20056;-67
2021/10/22 04:18:33;;;;;;;9.00;4.47;;;5.60;99.90;;;;;;5034323;28;20037;-67
2021/10/22 04:21:00;;;;;;;10.65;3.95;;;5.60;99.90;;;;;;5034845;28;20045;-67
2021/10/22 04:23:28;;;;;;;14.05;3.92;;;5.60;99.90;;;;;;5046865;28;20053;-67
2021/10/22 04:25:55;;;;;;;15.35;4.85;;;5.60;99.90;;;;;;5047119;28;20486;-66
2021/10/22 04:28:22;;;;;;;10.45;4.10;;;5.50;99.90;;;;;;5037861;28;20052;-66
2021/10/22 04:30:50;;;;;;;10.18;4.90;;;5.50;99.90;;;;;;5025029;28;20046;-66
2021/10/22 04:33:17;;;;;;;13.88;4.60;;;5.50;99.90;;;;;;5000935;28;20498;-66
2021/10/22 04:35:45;;;;;;;15.15;4.80;;;5.50;99.90;;;;;;5025034;28;20038;-66
2021/10/22 04:40:41;;;;;;;14.27;5.13;;;5.30;99.90;;;;;;5040099;28;20038;-66
2021/10/22 04:43:11;;;;;;;13.05;4.88;;;5.20;99.90;;;;;;5038076;28;20474;-66
2021/10/22 04:45:40;;;;;;;15.13;4.88;;;5.20;99.90;;;;;;5029279;28;20388;-66
2021/10/22 04:48:10;;;;;;;16.10;5.43;;;5.20;99.90;;;;;;5035679;28;20072;-66
2021/10/22 04:50:49;;;;;;;14.35;4.97;;;5.10;99.90;;;;;;5027813;28;20045;-66
2021/10/22 04:53:17;;;;;;;15.57;5.53;;;5.00;99.90;;;;;;5028432;28;20132;-66
2021/10/22 04:55:45;;;;;;;16.13;5.30;;;5.00;99.90;;;;;;5028615;28;20037;-66
2021/10/22 04:58:12;;;;;;;17.58;5.95;;;5.00;99.90;;;;;;5033068;28;20052;-68
2021/10/22 05:01:00;;;;;;;13.40;5.82;;;4.90;99.90;;;;;;5033178;28;20041;-66
2021/10/22 05:03:28;;;;;;;15.45;5.93;;;4.90;99.90;;;;;;5037573;28;20045;-67
2021/10/22 05:05:56;;;;;;;15.40;5.88;;;4.90;99.90;;;;;;5044929;28;20040;-67
2021/10/22 05:08:23;;;;;;;16.00;6.50;;;4.80;99.90;;;;;;5033459;28;20060;-67
2021/10/22 05:10:50;;;;;;;15.23;6.38;;;4.80;99.90;;;;;;5049514;28;20045;-67
2021/10/22 05:13:18;;;;;;;19.73;8.38;;;4.70;99.90;;;;;;5049946;28;20487;-67
2021/10/22 05:15:45;;;;;;;22.42;6.78;;;4.70;99.90;;;;;;5038219;28;20033;-67
2021/10/22 05:18:13;;;;;;;25.98;7.25;;;4.70;99.90;;;;;;5046898;28;20522;-67
2021/10/22 05:20:41;;;;;;;21.65;7.07;;;4.70;99.90;;;;;;5046283;28;20143;-67
2021/10/22 05:23:09;;;;;;;17.58;7.20;;;4.60;99.90;;;;;;5037878;28;20060;-67
2021/10/22 05:25:37;;;;;;;18.42;7.25;;;4.70;99.90;;;;;;5044593;28;20051;-67
2021/10/22 05:28:05;;;;;;;21.88;8.23;;;4.60;99.90;;;;;;5044520;28;20053;-67
2021/10/22 05:30:32;;;;;;;17.08;7.13;;;4.50;99.90;;;;;;5043251;28;20048;-67
2021/10/22 05:33:01;;;;;;;18.48;7.05;;;4.50;99.90;;;;;;5024607;28;20045;-67
2021/10/22 05:35:28;;;;;;;19.98;7.88;;;4.50;99.90;;;;;;5050627;28;20045;-67
2021/10/22 05:37:56;;;;;;;23.08;7.28;;;4.50;99.90;;;;;;5049962;28;20032;-68
2021/10/22 05:40:23;;;;;;;19.98;8.40;;;4.50;99.90;;;;;;5040963;28;20511;-66
2021/10/22 05:42:51;;;;;;;21.75;7.32;;;4.50;99.90;;;;;;5050154;28;20048;-66
2021/10/22 05:45:19;;;;;;;21.25;6.68;;;4.40;99.90;;;;;;5054539;28;20049;-66
2021/10/22 05:47:46;;;;;;;21.80;8.45;;;4.40;99.90;;;;;;5040693;28;20050;-66
2021/10/22 05:50:13;;;;;;;15.68;6.80;;;4.50;99.90;;;;;;5019581;28;20049;-66
2021/10/22 05:52:41;;;;;;;24.60;7.72;;;4.50;99.90;;;;;;5022283;28;20034;-66
2021/10/22 05:55:08;;;;;;;17.88;6.95;;;4.50;99.90;;;;;;5023480;28;20050;-66
2021/10/22 05:57:35;;;;;;;18.38;7.15;;;4.50;99.90;;;;;;5017823;28;20068;-66
2021/10/22 06:00:04;;;;;;;20.38;7.95;;;4.50;99.90;;;;;;5020545;28;20046;-67
2021/10/22 06:02:41;;;;;;;15.43;7.47;;;4.60;99.90;;;;;;5021981;28;20050;-66
2021/10/22 06:05:10;;;;;;;23.17;7.70;;;4.60;99.90;;;;;;5036258;28;20053;-67
2021/10/22 06:07:38;;;;;;;19.00;7.97;;;4.60;99.90;;;;;;5035977;28;20052;-66
2021/10/22 06:10:06;;;;;;;16.42;7.28;;;4.60;99.90;;;;;;5022259;28;20116;-67
2021/10/22 06:12:34;;;;;;;19.10;8.10;;;4.60;99.90;;;;;;5036118;28;20128;-67
2021/10/22 06:15:03;;;;;;;16.20;7.85;;;4.70;99.90;;;;;;5036662;28;20602;-66
2021/10/22 06:17:31;;;;;;;26.83;8.48;;;4.70;99.90;;;;;;5024314;28;20058;-66
2021/10/22 06:20:06;;;;;;;22.63;7.88;;;4.70;99.90;;;;;;5017790;28;20060;-68
2021/10/22 06:22:40;;;;;;;24.20;8.52;;;4.70;99.90;;;;;;5037543;28;20045;-68
2021/10/22 06:25:11;;;;;;;21.05;8.60;;;4.60;99.90;;;;;;5017150;28;20510;-68
2021/10/22 06:27:39;;;;;;;19.23;8.18;;;4.70;99.90;;;;;;5031611;28;20049;-68
2021/10/22 06:30:07;;;;;;;20.58;7.90;;;4.80;99.90;;;;;;5034560;28;20045;-68
2021/10/22 06:32:34;;;;;;;19.65;8.30;;;4.80;99.90;;;;;;5033864;28;20057;-68
2021/10/22 06:35:02;;;;;;;16.70;7.30;;;4.80;99.90;;;;;;5027878;28;20492;-68
2021/10/22 06:37:29;;;;;;;18.35;8.15;;;4.90;99.90;;;;;;5033807;28;20125;-68
2021/10/22 06:39:56;;;;;;;21.38;8.75;;;4.90;99.90;;;;;;5033283;28;20050;-69
2021/10/22 06:42:24;;;;;;;24.13;8.85;;;4.90;99.90;;;;;;5033479;28;20041;-69
2021/10/22 06:44:51;;;;;;;19.15;9.23;;;5.00;99.90;;;;;;5033762;28;20563;-69
2021/10/22 06:47:19;;;;;;;24.13;9.20;;;5.00;99.90;;;;;;5033487;28;20415;-69
2021/10/22 06:49:46;;;;;;;21.45;8.63;;;5.10;99.90;;;;;;5015592;28;20041;-69
2021/10/22 06:52:13;;;;;;;25.52;10.05;;;5.20;99.90;;;;;;5025674;28;20069;-69
2021/10/22 06:54:40;;;;;;;27.60;8.88;;;5.20;99.90;;;;;;4995995;28;20034;-69
2021/10/22 06:57:08;;;;;;;23.77;8.60;;;5.30;99.90;;;;;;5032271;28;20049;-68
2021/10/22 06:59:35;;;;;;;22.33;9.02;;;5.30;99.90;;;;;;5029255;28;20048;-69
2021/10/22 07:02:02;;;;;;;25.60;9.20;;;5.30;99.90;;;;;;5031952;28;20044;-69
2021/10/22 07:04:30;;;;;;;20.63;8.38;;;5.30;99.90;;;;;;5032091;28;20049;-69
2021/10/22 07:07:15;;;;;;;16.65;7.78;;;5.40;99.90;;;;;;5031813;28;20042;-69
2021/10/22 07:09:44;;;;;;;19.63;8.43;;;5.50;99.90;;;;;;5032951;28;20053;-68
2021/10/22 07:12:12;;;;;;;23.00;8.65;;;5.50;99.90;;;;;;5031672;28;20045;-69
2021/10/22 07:14:48;;;;;;;27.38;9.05;;;5.60;99.90;;;;;;5032765;28;20044;-68
2021/10/22 07:17:16;;;;;;;22.08;10.07;;;5.60;99.90;;;;;;5032566;28;20555;-68
2021/10/22 07:19:44;;;;;;;14.20;7.68;;;5.60;99.90;;;;;;5015472;28;20049;-69
2021/10/22 07:22:14;;;;;;;21.38;8.68;;;5.60;99.90;;;;;;5031935;28;20041;-68
2021/10/22 07:24:42;;;;;;;26.75;8.55;;;5.60;99.90;;;;;;5032773;28;20045;-68
2021/10/22 07:27:09;;;;;;;16.67;7.78;;;5.60;99.90;;;;;;5030929;28;20044;-68
2021/10/22 07:29:37;;;;;;;17.60;8.90;;;5.70;99.90;;;;;;5030523;28;20077;-69
2021/10/22 07:32:05;;;;;;;19.50;8.18;;;5.60;99.90;;;;;;5028766;28;20140;-69
2021/10/22 07:34:32;;;;;;;22.50;9.20;;;5.70;99.90;;;;;;5032075;28;20040;-68
2021/10/22 07:36:59;;;;;;;21.60;8.75;;;5.70;99.90;;;;;;5027129;28;20046;-68
2021/10/22 07:39:26;;;;;;;21.00;8.35;;;5.70;99.90;;;;;;5027115;28;20467;-68
2021/10/22 07:42:08;;;;;;;32.45;8.18;;;5.70;99.90;;;;;;5029705;28;20038;-68
2021/10/22 07:44:52;;;;;;;26.60;8.90;;;5.80;99.90;;;;;;5031835;28;20484;-68
2021/10/22 07:47:21;;;;;;;21.92;9.30;;;5.90;99.90;;;;;;5029356;28;20063;-68
2021/10/22 07:49:51;;;;;;;22.88;8.38;;;6.00;99.90;;;;;;5029595;28;20050;-68
2021/10/22 07:52:21;;;;;;;25.83;8.57;;;6.00;99.90;;;;;;5037171;28;20060;-69
2021/10/22 07:54:51;;;;;;;26.92;9.00;;;6.10;99.90;;;;;;5031555;28;20068;-68
2021/10/22 07:57:18;;;;;;;21.70;8.27;;;6.20;99.90;;;;;;5028859;28;20049;-69
2021/10/22 07:59:46;;;;;;;20.33;9.05;;;6.30;99.90;;;;;;5029854;28;20702;-69
2021/10/22 08:02:15;;;;;;;23.20;7.82;;;6.40;99.90;;;;;;5036867;28;20048;-67
2021/10/22 08:04:44;;;;;;;21.55;8.55;;;6.40;99.90;;;;;;5023343;28;20052;-68
2021/10/22 08:07:13;;;;;;;22.30;8.18;;;6.40;99.90;;;;;;5025923;28;20045;-66
2021/10/22 08:09:41;;;;;;;22.58;7.82;;;6.50;99.90;;;;;;5030577;28;20045;-67
2021/10/22 08:12:09;;;;;;;19.20;7.20;;;6.70;99.90;;;;;;5018706;28;20049;-67
2021/10/22 08:14:36;;;;;;;20.42;7.68;;;6.80;99.90;;;;;;5019793;28;20050;-68
2021/10/22 08:17:04;;;;;;;27.35;7.57;;;7.00;99.90;;;;;;5015269;28;20045;-66
2021/10/22 08:19:31;;;;;;;21.52;7.28;;;6.90;99.90;;;;;;5017041;28;20038;-66
2021/10/22 08:24:45;;;;;;;30.88;7.50;;;7.10;99.90;;;;;;5027142;28;20060;-68
2021/10/22 08:27:12;;;;;;;17.98;6.00;;;7.10;99.90;;;;;;5031644;28;20045;-66
2021/10/22 08:29:40;;;;;;;22.27;6.95;;;7.20;99.90;;;;;;5030628;28;20551;-67
2021/10/22 08:32:07;;;;;;;17.35;6.10;;;7.40;99.90;;;;;;5029799;28;20056;-67
2021/10/22 08:34:35;;;;;;;19.58;6.75;;;7.50;99.90;;;;;;5030420;28;20041;-67
2021/10/22 08:37:02;;;;;;;20.35;6.80;;;7.60;99.90;;;;;;5029569;28;20495;-67
2021/10/22 08:39:30;;;;;;;18.13;5.90;;;7.60;99.90;;;;;;5031439;28;20048;-66
2021/10/22 08:41:58;;;;;;;25.23;6.50;;;7.70;99.90;;;;;;5028964;28;20077;-66
2021/10/22 08:44:27;;;;;;;17.17;5.78;;;8.00;99.90;;;;;;5026224;28;20069;-66
2021/10/22 08:46:56;;;;;;;18.02;6.25;;;8.10;99.90;;;;;;5029285;28;20469;-67
2021/10/22 08:49:23;;;;;;;20.05;5.97;;;8.20;99.90;;;;;;5030079;28;20404;-66
2021/10/22 08:51:53;;;;;;;18.25;6.07;;;8.30;99.90;;;;;;5030660;28;20037;-67
2021/10/22 08:54:20;;;;;;;14.18;5.70;;;8.40;99.90;;;;;;5030457;28;20088;-67
2021/10/22 08:57:04;;;;;;;20.27;6.18;;;8.60;99.90;;;;;;5030636;28;20510;-67
2021/10/22 08:59:31;;;;;;;15.32;5.40;;;8.80;99.90;;;;;;5028733;28;20041;-67
2021/10/22 09:02:21;;;;;;;16.80;5.47;;;8.70;99.90;;;;;;5030694;28;20546;-67
2021/10/22 09:04:50;;;;;;;14.57;5.43;;;8.70;99.90;;;;;;5027166;28;20048;-68
2021/10/22 09:07:20;;;;;;;14.00;5.47;;;8.70;99.90;;;;;;5029456;28;20043;-67
2021/10/22 09:10:07;;;;;;;18.23;4.93;;;8.80;99.90;;;;;;5030513;28;20049;-67
2021/10/22 09:12:46;;;;;;;14.25;4.32;;;8.80;99.90;;;;;;5020371;28;20479;-67
2021/10/22 09:15:21;;;;;;;19.30;4.60;;;8.80;99.90;;;;;;5010360;28;20048;-67
2021/10/22 09:17:49;;;;;;;17.88;5.38;;;8.80;99.90;;;;;;5021711;28;20053;-67
2021/10/22 09:20:17;;;;;;;19.50;4.95;;;8.70;99.90;;;;;;5031781;28;20039;-66
2021/10/22 09:22:51;;;;;;;15.13;4.28;;;8.90;99.90;;;;;;5028283;28;20053;-67
2021/10/22 09:25:22;;;;;;;15.10;5.50;;;8.90;99.90;;;;;;5026977;28;20048;-66
2021/10/22 09:27:57;;;;;;;14.85;5.18;;;9.10;99.90;;;;;;5031496;28;20486;-67
2021/10/22 09:30:25;;;;;;;13.02;3.90;;;9.20;99.90;;;;;;5029900;28;20049;-67
2021/10/22 09:32:54;;;;;;;13.45;3.90;;;8.90;99.90;;;;;;5028755;28;20048;-66
2021/10/22 09:35:51;;;;;;;14.98;3.47;;;8.60;99.90;;;;;;5029719;28;20057;-67
2021/10/22 09:38:30;;;;;;;16.88;3.80;;;8.40;99.90;;;;;;5031018;28;20044;-67
2021/10/22 09:41:04;;;;;;;18.35;4.03;;;8.30;99.90;;;;;;5021927;28;20100;-67
2021/10/22 09:43:41;;;;;;;19.02;3.63;;;8.40;99.90;;;;;;5029006;28;20420;-67
2021/10/22 09:46:18;;;;;;;9.63;3.47;;;8.40;99.90;;;;;;5027610;28;20050;-67
2021/10/22 09:48:47;;;;;;;12.18;3.15;;;8.60;99.90;;;;;;5028664;28;20531;-67
2021/10/22 09:51:28;;;;;;;13.00;3.30;;;8.60;99.90;;;;;;5028784;28;20038;-67
2021/10/22 09:54:12;;;;;;;16.13;3.65;;;8.50;99.90;;;;;;5015071;28;20504;-67
2021/10/22 09:56:43;;;;;;;12.27;3.40;;;8.60;99.90;;;;;;5024319;28;20030;-67
2021/10/22 09:59:24;;;;;;;13.02;3.45;;;8.80;99.90;;;;;;5030081;28;20526;-67
2021/10/22 10:01:54;;;;;;;10.55;2.92;;;8.80;99.90;;;;;;5025840;28;20052;-67
2021/10/22 10:04:24;;;;;;;10.57;2.88;;;9.00;99.90;;;;;;5030119;28;20597;-66
2021/10/22 10:07:06;;;;;;;12.82;3.08;;;9.20;99.90;;;;;;5029017;28;20052;-67
2021/10/22 10:09:37;;;;;;;13.05;2.78;;;9.40;99.90;;;;;;5028855;28;20041;-67
2021/10/22 10:12:05;;;;;;;14.45;2.97;;;9.60;99.90;;;;;;5016991;28;20214;-66
2021/10/22 10:14:35;;;;;;;10.25;2.92;;;9.70;99.90;;;;;;5027931;28;20044;-68
2021/10/22 10:17:03;;;;;;;12.63;2.70;;;10.00;99.90;;;;;;5029610;28;20487;-66
2021/10/22 10:19:38;;;;;;;11.80;2.78;;;10.20;99.90;;;;;;5029351;28;20048;-67
2021/10/22 10:22:12;;;;;;;10.75;2.33;;;10.50;99.90;;;;;;5012723;28;20127;-67
2021/10/22 10:24:44;;;;;;;12.30;2.83;;;10.40;99.90;;;;;;5029956;28;20067;-67
2021/10/22 10:27:24;;;;;;;14.48;2.92;;;10.40;99.90;;;;;;5027030;28;20041;-66
2021/10/22 10:29:59;;;;;;;9.75;2.53;;;10.20;99.90;;;;;;5028204;28;20041;-68
2021/10/22 10:32:29;;;;;;;11.93;2.53;;;9.80;99.90;;;;;;5032199;28;20045;-69
2021/10/22 10:35:01;;;;;;;12.20;2.80;;;9.70;99.90;;;;;;5031477;28;20044;-68
2021/10/22 10:37:40;;;;;;;8.82;2.10;;;9.70;99.90;;;;;;5026362;28;20037;-67
2021/10/22 10:40:12;;;;;;;9.18;2.20;;;9.90;99.90;;;;;;5028929;28;20400;-68
2021/10/22 10:42:52;;;;;;;14.38;2.78;;;9.90;99.90;;;;;;5030299;28;20056;-68
2021/10/22 10:45:25;;;;;;;11.85;2.15;;;10.20;99.90;;;;;;5030939;28;20053;-68
2021/10/22 10:48:10;;;;;;;9.00;2.22;;;10.50;99.90;;;;;;5028851;28;20448;-68
2021/10/22 10:50:53;;;;;;;14.13;2.53;;;10.60;99.90;;;;;;5029292;28;20042;-68
2021/10/22 10:53:35;;;;;;;8.52;2.25;;;10.60;99.90;;;;;;5030517;28;20408;-67
2021/10/22 10:56:20;;;;;;;8.85;2.47;;;10.60;99.90;;;;;;5029861;28;20041;-67
2021/10/22 10:58:48;;;;;;;9.35;2.55;;;10.80;99.90;;;;;;5031170;28;20049;-67
2021/10/22 11:01:27;;;;;;;6.60;2.15;;;11.00;99.90;;;;;;5029378;28;20558;-67
2021/10/22 11:03:56;;;;;;;9.65;3.05;;;10.90;99.90;;;;;;5028683;28;20049;-67
2021/10/22 11:06:39;;;;;;;10.60;2.40;;;11.00;99.90;;;;;;5029078;28;20158;-67
2021/10/22 11:09:07;;;;;;;7.82;2.03;;;11.20;99.90;;;;;;5025199;28;20053;-66
2021/10/22 11:11:36;;;;;;;9.98;2.40;;;10.90;99.90;;;;;;5027804;28;20466;-67
2021/10/22 11:14:07;;;;;;;7.70;2.17;;;11.00;99.90;;;;;;5029530;28;20123;-66
2021/10/22 11:16:47;;;;;;;9.02;2.22;;;11.00;99.90;;;;;;5029544;28;20056;-67
2021/10/22 11:19:21;;;;;;;9.90;2.25;;;11.10;99.90;;;;;;5029307;28;20048;-67
2021/10/22 11:21:57;;;;;;;11.38;2.47;;;11.30;99.90;;;;;;5020598;28;20046;-66
2021/10/22 11:24:27;;;;;;;12.43;2.80;;;11.50;99.90;;;;;;5029498;28;20488;-66
2021/10/22 11:27:09;;;;;;;9.68;2.17;;;11.40;99.90;;;;;;5029692;28;20045;-66
2021/10/22 11:29:48;;;;;;;9.93;2.00;;;11.20;99.90;;;;;;5024452;28;20113;-66
2021/10/22 11:32:17;;;;;;;7.30;2.45;;;11.50;99.90;;;;;;5021878;28;20037;-66
2021/10/22 11:35:00;;;;;;;13.90;2.65;;;11.60;99.90;;;;;;5020068;28;20480;-67
2021/10/22 11:37:37;;;;;;;9.15;2.50;;;11.90;99.90;;;;;;5017638;28;20052;-67
2021/10/22 11:40:09;;;;;;;9.40;2.10;;;12.00;99.90;;;;;;5026215;28;20049;-67
2021/10/22 11:42:38;;;;;;;8.50;2.42;;;12.60;99.90;;;;;;5025741;28;20045;-71
2021/10/22 11:45:13;;;;;;;10.07;2.03;;;12.40;99.90;;;;;;5025135;28;20045;-68
2021/10/22 11:47:42;;;;;;;10.30;2.20;;;11.90;99.90;;;;;;5024272;28;20060;-66
2021/10/22 11:50:27;;;;;;;7.93;1.92;;;11.80;99.90;;;;;;5030748;28;20041;-66
2021/10/22 11:52:54;;;;;;;8.07;1.75;;;11.90;99.90;;;;;;5025225;28;20046;-68
2021/10/22 11:55:23;;;;;;;9.15;2.00;;;11.70;99.90;;;;;;5028931;28;20076;-67
2021/10/22 11:57:55;;;;;;;7.00;1.85;;;11.90;99.90;;;;;;5030084;28;20042;-68
2021/10/22 12:00:24;;;;;;;11.80;2.30;;;12.10;99.90;;;;;;5031595;28;20038;-67
2021/10/22 12:02:52;;;;;;;7.88;1.92;;;12.00;99.90;;;;;;5028032;28;20038;-66
2021/10/22 12:05:20;;;;;;;6.97;2.08;;;11.90;99.90;;;;;;5029547;28;20053;-67
2021/10/22 12:07:49;;;;;;;8.23;2.13;;;12.30;99.90;;;;;;5027533;28;20042;-67
2021/10/22 12:10:17;;;;;;;9.10;2.20;;;12.70;99.90;;;;;;5027830;28;20053;-68
2021/10/22 12:12:48;;;;;;;4.45;1.70;;;13.70;99.90;;;;;;5027183;28;20049;-68
2021/10/22 12:15:24;;;;;;;4.82;1.67;;;15.30;99.90;;;;;;5028922;28;20547;-67
2021/10/22 12:18:00;;;;;;;6.32;1.63;;;17.30;99.90;;;;;;5027071;28;20047;-67
2021/10/22 12:20:31;;;;;;;6.88;1.90;;;17.90;99.90;;;;;;5025265;28;20502;-67
2021/10/22 12:23:00;;;;;;;8.73;1.67;;;18.80;99.30;;;;;;5028981;28;20053;-67
2021/10/22 12:25:30;;;;;;;8.93;2.10;;;19.50;94.50;;;;;;5029084;28;20748;-65
2021/10/22 12:28:10;;;;;;;6.00;1.50;;;19.70;93.00;;;;;;5015497;28;20052;-67
2021/10/22 12:30:38;;;;;;;5.15;1.17;;;20.30;91.50;;;;;;5028162;28;20056;-67
2021/10/22 12:33:06;;;;;;;5.07;1.58;;;20.50;87.00;;;;;;5028298;28;20114;-68
2021/10/22 12:35:51;;;;;;;4.60;1.52;;;20.90;85.40;;;;;;5028112;28;20488;-68
2021/10/22 12:38:27;;;;;;;4.20;1.10;;;19.90;83.90;;;;;;5026627;28;20041;-66
2021/10/22 12:40:55;;;;;;;4.20;1.40;;;18.90;84.00;;;;;;5022117;28;20045;-66
2021/10/22 12:43:26;;;;;;;6.22;1.27;;;19.00;85.50;;;;;;5028477;28;20049;-66
2021/10/22 12:45:55;;;;;;;3.88;1.40;;;19.40;82.50;;;;;;5026675;28;20053;-66
2021/10/22 12:48:29;;;;;;;6.00;1.52;;;19.40;82.50;;;;;;5028897;28;20053;-67
2021/10/22 12:51:10;;;;;;;6.50;1.48;;;20.20;80.70;;;;;;5017187;28;20100;-66
2021/10/22 12:53:47;;;;;;;8.45;1.50;;;20.60;80.30;;;;;;5026112;28;20038;-66
2021/10/22 12:56:16;;;;;;;5.55;1.38;;;20.40;79.30;;;;;;5019014;28;20046;-66
2021/10/22 12:59:03;;;;;;;4.53;1.30;;;22.00;79.00;;;;;;5027902;28;20051;-67
2021/10/22 13:01:40;;;;;;;5.32;1.63;;;21.80;76.10;;;;;;5025879;28;20037;-66
2021/10/22 13:04:17;;;;;;;4.30;1.35;;;20.70;75.80;;;;;;5020374;28;20038;-66
2021/10/22 13:22:33;;;;;;;4.80;1.40;;;22.00;71.80;;;;;;5027273;28;20045;-66
2021/10/22 13:25:26;;;;;;;5.80;1.50;;;21.00;73.70;;;;;;5029068;28;20512;-66